GCHI/VDE METAR and TAF weather

Enter ICAO airport designator
Station Type Date Time Source
GCHI METAR 2020/01/22 15:30 UTC NOAA

GCHI 221530Z VRB01KT 9999 FEW035 19/11 Q1018


Station Type Date Time Source
GCHI Decoded METAR 2020/01/22 15:30 UTC NOAA

Hierro / Aeropuerto, Spain (GCHI) 27-49N 017-53W 32M
Jan 22, 2020 - 10:30 AM EST / 2020.01.22 1530 UTC
Wind: Variable at 1 MPH (1 KT):0
Visibility: greater than 7 mile(s):0
Sky conditions: mostly clear
Temperature: 66 F (19 C)
Dew Point: 51 F (11 C)
Relative Humidity: 59%
Pressure (altimeter): 30.06 in. Hg (1018 hPa)
ob: GCHI 221530Z VRB01KT 9999 FEW035 19/11 Q1018
cycle: 15

Station Type Date Time Source
GCHI TAF 2020/01/22 15:00 UTC NOAA

TAF GCHI 221400Z 2215/2315 12004KT 9999 BKN035 TX19/2314Z TN17/2306Z PROB30
TEMPO 2215/2218 RA
BECMG 2216/2218 31010KT

Example: see airport list